createdAt,value
2023-04-30T00:00:40.216Z,33.33
2023-04-30T00:03:08.402Z,31.77
2023-04-30T00:05:37.388Z,27.00
2023-04-30T00:08:06.885Z,35.90
2023-04-30T00:10:34.968Z,26.87
2023-04-30T00:13:03.047Z,31.30
2023-04-30T00:15:31.222Z,34.67
2023-04-30T00:17:59.310Z,27.60
2023-04-30T00:20:27.455Z,32.70
2023-04-30T00:22:55.787Z,31.43
2023-04-30T00:25:25.599Z,27.27
2023-04-30T00:27:53.864Z,31.50
2023-04-30T00:30:21.935Z,33.50
2023-04-30T00:32:50.073Z,30.63
2023-04-30T00:35:18.499Z,33.07
2023-04-30T00:37:46.588Z,29.83
2023-04-30T00:40:15.044Z,35.13
2023-04-30T00:42:44.486Z,28.03
2023-04-30T00:45:12.906Z,28.20
2023-04-30T00:47:41.736Z,27.07
2023-04-30T00:50:11.271Z,25.47
2023-04-30T00:52:39.527Z,26.80
2023-04-30T00:55:08.493Z,28.63
2023-04-30T00:57:37.853Z,30.37
2023-04-30T01:00:11.074Z,25.30
2023-04-30T01:02:39.553Z,27.40
2023-04-30T01:05:08.820Z,27.80
2023-04-30T01:07:38.978Z,29.80
2023-04-30T01:10:08.407Z,26.53
2023-04-30T01:12:42.442Z,23.70
2023-04-30T01:15:19.581Z,25.93
2023-04-30T01:17:56.756Z,25.93
2023-04-30T01:20:27.658Z,31.00
2023-04-30T01:23:01.864Z,30.20
2023-04-30T01:25:53.391Z,27.00
2023-04-30T01:28:24.851Z,26.40
2023-04-30T01:30:53.113Z,22.83
2023-04-30T01:33:21.352Z,26.67
2023-04-30T01:36:09.737Z,24.90
2023-04-30T01:39:00.900Z,28.07
2023-04-30T01:41:34.860Z,32.00
2023-04-30T01:44:25.213Z,27.83
2023-04-30T01:47:00.162Z,25.50
2023-04-30T01:49:38.189Z,26.60
2023-04-30T01:52:14.666Z,27.13
2023-04-30T01:54:50.232Z,29.73
2023-04-30T01:57:24.282Z,28.23
2023-04-30T01:59:54.452Z,28.93
2023-04-30T02:02:22.717Z,26.33
2023-04-30T02:04:50.886Z,21.97
2023-04-30T02:07:30.348Z,25.40
2023-04-30T02:09:58.461Z,29.50
2023-04-30T02:12:27.742Z,27.60
2023-04-30T02:14:57.216Z,31.87
2023-04-30T02:17:25.281Z,30.80
2023-04-30T02:19:53.614Z,33.00
2023-04-30T02:22:21.916Z,29.53
2023-04-30T02:24:50.064Z,28.40
2023-04-30T02:27:18.305Z,27.30
2023-04-30T02:29:46.561Z,29.80
2023-04-30T02:32:16.020Z,30.70
2023-04-30T02:34:44.189Z,31.47
2023-04-30T02:37:12.375Z,29.60
2023-04-30T02:39:41.215Z,34.27
2023-04-30T02:42:09.307Z,30.97
2023-04-30T02:44:37.364Z,31.70
2023-04-30T02:47:05.444Z,36.20
2023-04-30T02:49:35.042Z,30.90
2023-04-30T02:52:03.218Z,33.00
2023-04-30T02:54:31.269Z,35.63
2023-04-30T02:56:59.353Z,36.63
2023-04-30T02:59:27.485Z,34.80
2023-04-30T03:01:55.560Z,41.10
2023-04-30T03:04:23.602Z,36.57
2023-04-30T03:06:53.047Z,37.70
2023-04-30T03:09:21.162Z,34.90
2023-04-30T03:11:49.362Z,39.27
2023-04-30T03:14:17.409Z,42.00
2023-04-30T03:16:45.583Z,34.20
2023-04-30T03:19:13.714Z,35.10
2023-04-30T03:21:41.903Z,37.60
2023-04-30T03:24:11.367Z,33.93
2023-04-30T03:26:39.497Z,50.33
2023-04-30T03:29:07.737Z,41.87
2023-04-30T03:31:35.858Z,44.87
2023-04-30T03:34:03.945Z,50.43
2023-04-30T03:36:32.553Z,49.23
2023-04-30T03:39:00.846Z,48.73
2023-04-30T03:41:30.267Z,52.67
2023-04-30T03:43:58.387Z,49.13
2023-04-30T03:46:26.487Z,44.50
2023-04-30T03:48:54.571Z,45.10
2023-04-30T03:51:23.451Z,48.30
2023-04-30T03:53:51.506Z,52.10
2023-04-30T03:56:19.650Z,43.47
2023-04-30T03:58:49.157Z,42.80
2023-04-30T04:01:17.330Z,42.10
2023-04-30T04:03:45.563Z,42.80
2023-04-30T04:06:13.696Z,46.37
2023-04-30T04:08:43.342Z,43.37
2023-04-30T04:11:11.525Z,41.63
2023-04-30T04:13:39.607Z,45.13
2023-04-30T04:16:09.812Z,45.00
2023-04-30T04:18:37.929Z,39.03
2023-04-30T04:21:06.739Z,49.23
2023-04-30T04:23:34.818Z,42.23
2023-04-30T04:26:03.253Z,49.37
2023-04-30T04:28:32.008Z,49.60
2023-04-30T04:31:00.103Z,43.30
2023-04-30T04:33:29.567Z,40.33
2023-04-30T04:35:57.999Z,43.57
2023-04-30T04:38:26.867Z,40.33
2023-04-30T04:40:55.289Z,42.83
2023-04-30T04:43:23.361Z,40.53
2023-04-30T04:45:52.273Z,38.10
2023-04-30T04:48:20.350Z,45.47
2023-04-30T04:50:49.794Z,42.20
2023-04-30T04:53:17.852Z,39.87
2023-04-30T04:55:45.902Z,40.30
2023-04-30T04:58:13.988Z,34.43
2023-04-30T05:00:42.201Z,39.63
2023-04-30T05:03:10.409Z,36.80
2023-04-30T05:05:38.658Z,41.43
2023-04-30T05:08:08.180Z,40.37
2023-04-30T05:10:36.338Z,38.57
2023-04-30T05:13:04.700Z,37.80
2023-04-30T05:15:32.757Z,41.77
2023-04-30T05:18:00.910Z,39.67
2023-04-30T05:20:29.006Z,46.13
2023-04-30T05:22:57.060Z,40.47
2023-04-30T05:25:26.615Z,38.27
2023-04-30T05:27:54.685Z,35.07
2023-04-30T05:30:22.727Z,46.07
2023-04-30T05:32:52.705Z,55.30
2023-04-30T05:35:21.235Z,35.50
2023-04-30T05:37:49.468Z,36.60
2023-04-30T05:40:17.851Z,39.83
2023-04-30T05:42:47.294Z,35.17
2023-04-30T05:45:17.231Z,37.47
2023-04-30T05:47:45.625Z,34.27
2023-04-30T05:50:13.925Z,34.50
2023-04-30T05:52:42.028Z,37.60
2023-04-30T05:55:11.049Z,41.20
2023-04-30T05:57:39.305Z,42.03
2023-04-30T06:00:10.293Z,36.50
2023-04-30T06:02:38.522Z,36.80
2023-04-30T06:05:08.952Z,40.60
2023-04-30T06:07:37.173Z,33.87
2023-04-30T06:10:05.977Z,38.03
2023-04-30T06:12:34.057Z,38.47
2023-04-30T06:15:02.327Z,34.67
2023-04-30T06:17:31.868Z,53.63
2023-04-30T06:20:02.564Z,36.80
2023-04-30T06:22:31.692Z,38.03
2023-04-30T06:24:59.823Z,43.87
2023-04-30T06:27:28.881Z,35.33
2023-04-30T06:29:57.154Z,37.07
2023-04-30T06:32:25.310Z,34.83
2023-04-30T06:34:54.792Z,33.83
2023-04-30T06:37:22.908Z,37.13
2023-04-30T06:39:51.651Z,33.27
2023-04-30T06:42:19.745Z,36.47
2023-04-30T06:44:47.811Z,40.13
2023-04-30T06:47:15.910Z,34.47
2023-04-30T06:49:43.975Z,40.33
2023-04-30T06:52:13.414Z,41.20
2023-04-30T06:54:42.947Z,39.70
2023-04-30T06:57:11.039Z,39.83
2023-04-30T06:59:39.391Z,38.80
2023-04-30T07:02:07.727Z,37.30
2023-04-30T07:04:35.920Z,42.40
2023-04-30T07:07:04.421Z,36.20
2023-04-30T07:09:33.878Z,39.03
2023-04-30T07:12:02.111Z,45.67
2023-04-30T07:14:30.188Z,37.73
2023-04-30T07:16:58.246Z,33.80
2023-04-30T07:19:27.032Z,34.73
2023-04-30T07:21:55.078Z,46.47
2023-04-30T07:24:23.109Z,36.57
2023-04-30T07:26:52.689Z,39.87
2023-04-30T07:29:20.810Z,31.80
2023-04-30T07:31:48.894Z,38.70
2023-04-30T07:34:17.013Z,35.60
2023-04-30T07:36:45.075Z,33.13
2023-04-30T07:39:13.897Z,29.03
2023-04-30T07:41:42.003Z,26.30
2023-04-30T07:44:12.040Z,41.63
2023-04-30T07:46:40.283Z,25.57
2023-04-30T07:49:08.500Z,28.93
2023-04-30T07:51:37.422Z,26.20
2023-04-30T07:54:06.050Z,25.80
2023-04-30T07:56:34.116Z,19.30
2023-04-30T07:59:02.186Z,25.93
2023-04-30T08:01:31.855Z,25.90
2023-04-30T08:04:00.085Z,20.77
2023-04-30T08:06:29.049Z,19.73
2023-04-30T08:08:57.274Z,20.00
2023-04-30T08:11:25.433Z,21.30
2023-04-30T08:13:53.956Z,63.43
2023-04-30T08:16:22.123Z,32.33
2023-04-30T08:18:51.746Z,22.87
2023-04-30T08:21:20.033Z,26.27
2023-04-30T08:23:48.154Z,24.77
2023-04-30T08:26:16.234Z,26.97
2023-04-30T08:28:44.319Z,19.53
2023-04-30T08:31:13.330Z,18.93
2023-04-30T08:33:41.465Z,20.50
2023-04-30T08:36:11.116Z,18.80
2023-04-30T08:38:39.174Z,34.53
2023-04-30T08:41:12.222Z,22.53
2023-04-30T08:43:40.786Z,22.80
2023-04-30T08:46:09.232Z,18.27
2023-04-30T08:48:37.503Z,21.67
2023-04-30T08:51:06.072Z,22.03
2023-04-30T08:53:37.434Z,20.20
2023-04-30T08:56:05.920Z,22.63
2023-04-30T08:58:34.158Z,18.07
2023-04-30T09:01:02.893Z,14.90
2023-04-30T09:03:32.410Z,49.83
2023-04-30T09:06:00.644Z,20.77
2023-04-30T09:08:48.075Z,32.23
2023-04-30T09:11:26.914Z,27.40
2023-04-30T09:14:01.022Z,24.43
2023-04-30T09:16:31.572Z,18.20
2023-04-30T09:19:00.424Z,14.10
2023-04-30T09:21:35.747Z,13.97
2023-04-30T09:24:06.324Z,15.03
2023-04-30T09:26:35.799Z,17.60
2023-04-30T09:29:08.112Z,12.70
2023-04-30T09:31:37.186Z,22.27
2023-04-30T09:34:06.228Z,15.40
2023-04-30T09:36:34.651Z,15.17
2023-04-30T09:39:14.235Z,18.07
2023-04-30T09:41:43.558Z,14.10
2023-04-30T09:44:28.319Z,12.40
2023-04-30T09:46:57.993Z,21.40
2023-04-30T09:49:26.489Z,22.83
2023-04-30T09:51:57.955Z,15.67
2023-04-30T09:54:29.519Z,15.57
2023-04-30T09:56:59.175Z,13.23
2023-04-30T09:59:36.614Z,14.47
2023-04-30T10:02:06.971Z,26.37
2023-04-30T10:04:36.514Z,14.60
2023-04-30T10:07:09.650Z,13.77
2023-04-30T10:09:44.850Z,14.20
2023-04-30T10:12:16.903Z,13.23
2023-04-30T10:14:51.137Z,14.20
2023-04-30T10:17:20.133Z,15.03
2023-04-30T10:19:50.848Z,13.40
2023-04-30T10:22:19.401Z,14.30
2023-04-30T10:24:49.525Z,15.87
2023-04-30T10:27:18.010Z,12.37
2023-04-30T10:29:47.472Z,13.93
2023-04-30T10:32:16.818Z,14.77
2023-04-30T10:34:54.478Z,20.73
2023-04-30T10:37:32.224Z,19.73
2023-04-30T10:40:02.263Z,15.30
2023-04-30T10:42:30.425Z,14.57
2023-04-30T10:44:58.545Z,15.67
2023-04-30T10:47:30.901Z,16.60
2023-04-30T10:50:04.242Z,26.20
2023-04-30T10:52:32.364Z,16.30
2023-04-30T10:55:06.253Z,18.07
2023-04-30T10:57:42.789Z,13.97
2023-04-30T11:00:20.979Z,15.00
2023-04-30T11:02:49.985Z,14.40
2023-04-30T11:05:19.808Z,18.40
2023-04-30T11:07:50.546Z,24.93
2023-04-30T11:10:23.741Z,20.90
2023-04-30T11:12:53.593Z,15.43
2023-04-30T11:15:25.483Z,13.70
2023-04-30T11:17:58.264Z,15.47
2023-04-30T11:20:27.501Z,12.50
2023-04-30T11:23:19.686Z,14.37
2023-04-30T11:25:57.762Z,17.90
2023-04-30T11:28:27.325Z,26.43
2023-04-30T11:30:57.054Z,25.77
2023-04-30T11:33:26.262Z,26.03
2023-04-30T11:35:56.102Z,11.43
2023-04-30T11:38:27.311Z,10.80
2023-04-30T11:40:57.758Z,15.23
2023-04-30T11:43:27.337Z,8.37
2023-04-30T11:46:03.242Z,12.37
2023-04-30T11:48:35.680Z,10.03
2023-04-30T11:51:15.486Z,7.67
2023-04-30T11:53:43.672Z,9.87
2023-04-30T11:56:13.116Z,8.50
2023-04-30T11:58:41.334Z,7.17
2023-04-30T12:01:10.964Z,5.73
2023-04-30T12:03:43.935Z,7.67
2023-04-30T12:06:13.124Z,7.10
2023-04-30T12:08:43.102Z,6.77
2023-04-30T12:11:26.060Z,5.73
2023-04-30T12:13:55.611Z,5.60
2023-04-30T12:16:25.232Z,5.33
2023-04-30T12:18:53.439Z,9.90
2023-04-30T12:21:23.033Z,5.13
2023-04-30T12:23:51.566Z,6.63
2023-04-30T12:26:19.617Z,9.60
2023-04-30T12:28:50.489Z,5.70
2023-04-30T12:31:19.212Z,7.60
2023-04-30T12:33:56.445Z,6.03
2023-04-30T12:36:32.728Z,4.97
2023-04-30T12:39:18.727Z,11.10
2023-04-30T12:41:48.818Z,6.40
2023-04-30T12:44:22.310Z,9.43
2023-04-30T12:46:53.479Z,5.30
2023-04-30T12:49:27.282Z,6.50
2023-04-30T12:52:01.297Z,8.63
2023-04-30T12:54:30.649Z,6.97
2023-04-30T12:57:03.553Z,7.20
2023-04-30T12:59:34.215Z,15.60
2023-04-30T13:02:12.838Z,5.30
2023-04-30T13:04:42.037Z,5.97
2023-04-30T13:07:10.325Z,6.30
2023-04-30T13:09:39.484Z,6.10
2023-04-30T13:12:07.772Z,7.67
2023-04-30T13:14:37.301Z,9.83
2023-04-30T13:17:07.521Z,7.37
2023-04-30T13:19:35.681Z,11.30
2023-04-30T13:22:03.817Z,5.63
2023-04-30T13:24:32.193Z,6.77
2023-04-30T13:27:00.369Z,9.27
2023-04-30T13:29:28.425Z,4.80
2023-04-30T13:31:58.217Z,8.73
2023-04-30T13:34:26.281Z,6.53
2023-04-30T13:36:54.745Z,11.27
2023-04-30T13:39:23.213Z,8.40
2023-04-30T13:41:51.313Z,5.77
2023-04-30T13:44:19.396Z,9.70
2023-04-30T13:46:47.484Z,14.60
2023-04-30T13:49:17.052Z,8.13
2023-04-30T13:51:45.120Z,8.70
2023-04-30T13:54:13.189Z,5.60
2023-04-30T13:56:41.310Z,15.67
2023-04-30T13:59:09.670Z,8.93
2023-04-30T14:01:37.774Z,8.70
2023-04-30T14:04:06.148Z,9.60
2023-04-30T14:06:36.939Z,9.70
2023-04-30T14:09:05.213Z,11.17
2023-04-30T14:11:33.306Z,9.53
2023-04-30T14:14:01.383Z,7.53
2023-04-30T14:16:30.454Z,4.77
2023-04-30T14:18:58.711Z,13.00
2023-04-30T14:21:27.569Z,11.33
2023-04-30T14:23:56.996Z,11.00
2023-04-30T14:26:25.103Z,12.00
2023-04-30T14:28:53.358Z,6.77
2023-04-30T14:31:21.425Z,15.50
2023-04-30T14:33:49.530Z,9.93
2023-04-30T14:36:17.662Z,7.47
2023-04-30T14:38:45.706Z,9.93
2023-04-30T14:41:15.356Z,7.77
2023-04-30T14:43:43.420Z,7.00
2023-04-30T14:46:11.813Z,10.70
2023-04-30T14:48:40.148Z,6.40
2023-04-30T14:51:08.285Z,8.77
2023-04-30T14:53:37.430Z,10.20
2023-04-30T14:56:07.213Z,8.10
2023-04-30T14:58:36.663Z,7.47
2023-04-30T15:01:04.964Z,7.03
2023-04-30T15:03:33.318Z,6.70
2023-04-30T15:06:01.583Z,11.07
2023-04-30T15:08:29.769Z,8.90
2023-04-30T15:10:58.512Z,8.77
2023-04-30T15:13:26.659Z,6.07
2023-04-30T15:15:56.233Z,9.50
2023-04-30T15:18:24.347Z,11.10
2023-04-30T15:20:52.419Z,8.00
2023-04-30T15:23:20.930Z,7.33
2023-04-30T15:25:49.180Z,7.97
2023-04-30T15:28:17.327Z,7.17
2023-04-30T15:30:45.381Z,9.07
2023-04-30T15:33:14.828Z,7.77
2023-04-30T15:35:43.057Z,10.93
2023-04-30T15:38:11.098Z,17.83
2023-04-30T15:40:39.149Z,9.50
2023-04-30T15:43:07.935Z,7.30
2023-04-30T15:45:36.053Z,13.90
2023-04-30T15:48:04.375Z,5.70
2023-04-30T15:50:33.951Z,5.80
2023-04-30T15:53:02.206Z,6.37
2023-04-30T15:55:30.796Z,6.77
2023-04-30T15:57:58.845Z,8.23
2023-04-30T16:00:27.273Z,8.90
2023-04-30T16:02:55.608Z,9.17
2023-04-30T16:05:23.897Z,8.13
2023-04-30T16:07:53.527Z,10.03
2023-04-30T16:10:22.155Z,8.30
2023-04-30T16:12:50.241Z,5.63
2023-04-30T16:15:18.533Z,6.00
2023-04-30T16:17:46.570Z,6.23
2023-04-30T16:20:15.228Z,5.87
2023-04-30T16:22:43.488Z,5.47
2023-04-30T16:25:13.110Z,9.00
2023-04-30T16:27:41.271Z,9.10
2023-04-30T16:30:10.559Z,8.23
2023-04-30T16:32:38.696Z,8.20
2023-04-30T16:35:07.612Z,6.20
2023-04-30T16:37:35.880Z,7.43
2023-04-30T16:40:06.220Z,5.17
2023-04-30T16:42:36.200Z,5.53
2023-04-30T16:45:04.422Z,9.80
2023-04-30T16:47:32.582Z,5.40
2023-04-30T16:50:00.750Z,7.23
2023-04-30T16:52:29.676Z,5.23
2023-04-30T16:54:57.762Z,23.17
2023-04-30T16:57:26.146Z,7.33
2023-04-30T16:59:55.774Z,6.53
2023-04-30T17:02:24.347Z,8.07
2023-04-30T17:04:52.610Z,7.50
2023-04-30T17:07:20.731Z,4.90
2023-04-30T17:09:48.838Z,7.87
2023-04-30T17:12:16.950Z,5.30
2023-04-30T17:14:45.045Z,7.00
2023-04-30T17:17:14.516Z,5.70
2023-04-30T17:19:42.585Z,4.50
2023-04-30T17:22:10.683Z,6.73
2023-04-30T17:24:38.782Z,13.83
2023-04-30T17:27:06.861Z,7.50
2023-04-30T17:29:35.043Z,6.03
2023-04-30T17:32:03.943Z,6.50
2023-04-30T17:34:33.410Z,8.03
2023-04-30T17:37:01.468Z,5.70
2023-04-30T17:39:32.396Z,11.77
2023-04-30T17:42:00.855Z,6.77
2023-04-30T17:44:31.393Z,5.20
2023-04-30T17:46:59.453Z,4.90
2023-04-30T17:49:28.564Z,7.53
2023-04-30T17:51:59.046Z,9.13
2023-04-30T17:54:27.221Z,8.07
2023-04-30T17:56:55.589Z,8.50
2023-04-30T17:59:23.722Z,7.33
2023-04-30T18:01:51.894Z,4.70
2023-04-30T18:04:20.871Z,7.50
2023-04-30T18:06:49.236Z,5.97
2023-04-30T18:09:18.983Z,5.93
2023-04-30T18:11:47.043Z,6.47
2023-04-30T18:14:15.119Z,4.77
2023-04-30T18:16:43.321Z,8.23
2023-04-30T18:19:11.483Z,6.40
2023-04-30T18:21:39.650Z,5.77
2023-04-30T18:24:07.692Z,5.80
2023-04-30T18:26:37.539Z,4.77
2023-04-30T18:29:06.123Z,6.90
2023-04-30T18:31:36.681Z,5.70
2023-04-30T18:34:04.964Z,5.53
2023-04-30T18:36:33.138Z,7.33
2023-04-30T18:39:01.182Z,7.63
2023-04-30T18:41:29.308Z,5.50
2023-04-30T18:43:58.856Z,5.90
2023-04-30T18:46:27.110Z,7.43
2023-04-30T18:48:56.269Z,6.10
2023-04-30T18:51:24.323Z,5.93
2023-04-30T18:53:52.502Z,7.27
2023-04-30T18:56:22.018Z,5.87
2023-04-30T18:58:50.447Z,6.00
2023-04-30T19:01:21.517Z,7.07
2023-04-30T19:03:49.805Z,7.00
2023-04-30T19:06:18.022Z,7.20
2023-04-30T19:08:46.868Z,8.20
2023-04-30T19:11:15.111Z,5.73
2023-04-30T19:13:43.175Z,5.90
2023-04-30T19:16:11.384Z,12.73
2023-04-30T19:18:40.974Z,7.47
2023-04-30T19:21:09.463Z,7.33
2023-04-30T19:23:38.486Z,7.00
2023-04-30T19:26:06.592Z,7.10
2023-04-30T19:28:34.648Z,7.63
2023-04-30T19:31:03.984Z,5.90
2023-04-30T19:33:36.621Z,8.50
2023-04-30T19:36:06.808Z,7.63
2023-04-30T19:38:34.887Z,10.03
2023-04-30T19:41:02.937Z,7.83
2023-04-30T19:43:31.564Z,9.97
2023-04-30T19:46:01.959Z,8.83
2023-04-30T19:48:31.092Z,9.00
2023-04-30T19:50:59.190Z,11.13
2023-04-30T19:53:29.141Z,9.33
2023-04-30T19:55:57.238Z,14.03
2023-04-30T19:58:25.288Z,11.13
2023-04-30T20:00:53.527Z,7.33
2023-04-30T20:03:25.254Z,8.00
2023-04-30T20:05:54.124Z,8.13
2023-04-30T20:08:22.837Z,7.40
2023-04-30T20:10:52.293Z,9.57
2023-04-30T20:13:21.054Z,7.67
2023-04-30T20:15:49.590Z,9.50
2023-04-30T20:18:17.684Z,11.80
2023-04-30T20:20:46.063Z,9.47
2023-04-30T20:23:16.130Z,7.53
2023-04-30T20:25:45.695Z,7.80
2023-04-30T20:28:16.466Z,8.17
2023-04-30T20:30:45.030Z,8.27
2023-04-30T20:33:13.653Z,12.30
2023-04-30T20:35:41.995Z,11.23
2023-04-30T20:38:10.765Z,10.30
2023-04-30T20:40:40.554Z,9.57
2023-04-30T20:43:10.221Z,8.50
2023-04-30T20:45:40.126Z,10.30
2023-04-30T20:48:09.097Z,8.63
2023-04-30T20:50:37.745Z,9.30
2023-04-30T20:53:05.867Z,12.17
2023-04-30T20:55:33.917Z,8.83
2023-04-30T20:58:03.009Z,9.00
2023-04-30T21:00:31.145Z,9.07
2023-04-30T21:03:00.769Z,10.07
2023-04-30T21:05:30.146Z,9.50
2023-04-30T21:08:01.153Z,10.17
2023-04-30T21:10:35.585Z,9.33
2023-04-30T21:13:06.088Z,14.33
2023-04-30T21:15:36.699Z,8.80
2023-04-30T21:18:06.197Z,11.60
2023-04-30T21:20:34.303Z,11.53
2023-04-30T21:23:03.273Z,9.23
2023-04-30T21:25:31.393Z,8.23
2023-04-30T21:27:59.480Z,12.10
2023-04-30T21:30:27.589Z,11.00
2023-04-30T21:32:58.885Z,10.80
2023-04-30T21:35:33.523Z,12.40
2023-04-30T21:38:01.613Z,12.60
2023-04-30T21:40:33.637Z,11.50
2023-04-30T21:43:01.843Z,14.40
2023-04-30T21:45:30.777Z,11.27
2023-04-30T21:47:59.004Z,13.73
2023-04-30T21:50:28.631Z,14.57
2023-04-30T21:52:56.706Z,17.13
2023-04-30T21:55:25.007Z,17.03
2023-04-30T21:57:53.049Z,14.50
2023-04-30T22:00:21.420Z,14.13
2023-04-30T22:02:49.699Z,14.77
2023-04-30T22:05:18.975Z,15.00
2023-04-30T22:07:48.487Z,16.23
2023-04-30T22:10:16.592Z,15.03
2023-04-30T22:12:47.352Z,13.73
2023-04-30T22:15:16.609Z,15.70
2023-04-30T22:17:46.248Z,14.43
2023-04-30T22:20:14.775Z,16.70
2023-04-30T22:22:42.958Z,18.73
2023-04-30T22:25:12.499Z,23.53
2023-04-30T22:27:40.609Z,15.57
2023-04-30T22:30:09.493Z,16.33
2023-04-30T22:32:38.660Z,19.17
2023-04-30T22:35:08.149Z,18.37
2023-04-30T22:37:38.607Z,16.27
2023-04-30T22:40:08.183Z,17.87
2023-04-30T22:42:37.767Z,21.70
2023-04-30T22:45:06.857Z,16.80
2023-04-30T22:47:35.518Z,19.70
2023-04-30T22:50:04.846Z,16.47
2023-04-30T22:52:33.257Z,16.40
2023-04-30T22:55:01.802Z,16.97
2023-04-30T22:57:29.918Z,16.50
2023-04-30T22:59:59.358Z,20.60
2023-04-30T23:02:28.796Z,19.30
2023-04-30T23:04:56.977Z,24.93
2023-04-30T23:07:25.128Z,18.37
2023-04-30T23:09:53.436Z,21.60
2023-04-30T23:12:22.509Z,19.30
2023-04-30T23:14:50.913Z,21.10
2023-04-30T23:17:20.662Z,18.90
2023-04-30T23:19:48.777Z,21.37
2023-04-30T23:22:17.073Z,18.23
2023-04-30T23:24:45.727Z,19.70
2023-04-30T23:27:13.885Z,23.10
2023-04-30T23:29:42.965Z,18.50
2023-04-30T23:32:11.286Z,20.03
2023-04-30T23:34:40.752Z,19.83
2023-04-30T23:37:08.829Z,17.23
2023-04-30T23:39:36.910Z,20.10
2023-04-30T23:42:05.097Z,20.53
2023-04-30T23:44:33.206Z,20.47
2023-04-30T23:47:01.859Z,21.63
2023-04-30T23:49:29.932Z,19.03
2023-04-30T23:51:59.433Z,23.63
2023-04-30T23:54:27.581Z,18.13
2023-04-30T23:56:55.649Z,27.30
2023-04-30T23:59:25.760Z,18.30
